createdAt,value
2022-12-16T00:02:32.327Z,17.90
2022-12-16T00:05:45.179Z,17.05
2022-12-16T00:08:59.190Z,15.85
2022-12-16T00:12:14.184Z,13.27
2022-12-16T00:15:14.263Z,14.80
2022-12-16T00:18:38.219Z,16.83
2022-12-16T00:21:39.320Z,13.80
2022-12-16T00:25:04.236Z,14.73
2022-12-16T00:28:04.325Z,12.90
2022-12-16T00:31:28.293Z,14.65
2022-12-16T00:34:31.322Z,12.87
2022-12-16T00:37:43.335Z,15.80
2022-12-16T00:40:57.275Z,12.33
2022-12-16T00:44:10.313Z,13.90
2022-12-16T00:47:10.317Z,20.57
2022-12-16T00:50:34.396Z,17.50
2022-12-16T00:53:49.294Z,19.83
2022-12-16T00:57:15.364Z,18.03
2022-12-16T01:00:17.383Z,21.13
2022-12-16T01:03:29.519Z,13.73
2022-12-16T01:06:41.375Z,13.63
2022-12-16T01:09:53.347Z,14.10
2022-12-16T01:13:07.438Z,13.57
2022-12-16T01:16:20.437Z,11.70
2022-12-16T01:19:32.499Z,16.30
2022-12-16T01:22:57.445Z,14.73
2022-12-16T01:25:57.425Z,13.23
2022-12-16T01:29:23.482Z,14.20
2022-12-16T01:32:36.489Z,15.60
2022-12-16T01:36:04.531Z,14.23
2022-12-16T01:39:19.519Z,16.90
2022-12-16T01:42:44.535Z,15.63
2022-12-16T01:46:01.632Z,25.95
2022-12-16T01:49:25.557Z,16.03
2022-12-16T01:52:37.507Z,19.50
2022-12-16T01:56:01.525Z,16.40
2022-12-16T01:59:13.540Z,19.50
2022-12-16T02:02:42.668Z,16.83
2022-12-16T02:06:07.573Z,20.25
2022-12-16T02:09:19.584Z,15.60
2022-12-16T02:12:46.632Z,16.65
2022-12-16T02:15:59.604Z,16.47
2022-12-16T02:19:25.614Z,16.97
2022-12-16T02:22:39.651Z,16.03
2022-12-16T02:26:06.622Z,16.60
2022-12-16T02:29:23.611Z,20.05
2022-12-16T02:32:49.637Z,16.75
2022-12-16T02:36:02.649Z,16.70
2022-12-16T02:39:29.690Z,17.73
2022-12-16T02:42:41.723Z,17.93
2022-12-16T02:46:08.815Z,17.97
2022-12-16T02:49:22.712Z,17.75
2022-12-16T02:52:46.730Z,18.37
2022-12-16T02:55:58.727Z,16.10
2022-12-16T02:59:28.729Z,16.57
2022-12-16T03:02:40.831Z,19.50
2022-12-16T03:06:06.742Z,18.10
2022-12-16T03:09:18.743Z,21.40
2022-12-16T03:12:42.735Z,17.25
2022-12-16T03:15:54.751Z,16.53
2022-12-16T03:19:19.845Z,16.50
2022-12-16T03:22:33.788Z,21.20
2022-12-16T03:25:57.865Z,17.90
2022-12-16T03:29:10.824Z,17.70
2022-12-16T03:32:34.801Z,18.17
2022-12-16T03:35:46.808Z,18.47
2022-12-16T03:39:16.900Z,17.00
2022-12-16T03:42:28.848Z,16.43
2022-12-16T03:45:53.985Z,20.10
2022-12-16T03:49:09.877Z,16.47
2022-12-16T03:52:21.925Z,17.75
2022-12-16T03:55:35.859Z,18.23
2022-12-16T03:58:46.932Z,20.20
2022-12-16T04:01:47.099Z,21.43
2022-12-16T04:04:59.062Z,19.53
2022-12-16T04:08:02.212Z,16.87
2022-12-16T04:11:31.380Z,19.80
2022-12-16T04:14:37.541Z,22.43
2022-12-16T04:17:56.669Z,20.97
2022-12-16T04:21:17.222Z,18.67
2022-12-16T04:24:42.006Z,20.40
2022-12-16T04:27:57.010Z,20.10
2022-12-16T04:31:21.065Z,21.70
2022-12-16T04:34:26.439Z,18.70
2022-12-16T04:37:44.917Z,16.53
2022-12-16T04:40:50.960Z,18.73
2022-12-16T04:44:23.994Z,18.57
2022-12-16T04:47:29.843Z,21.05
2022-12-16T04:50:47.772Z,23.40
2022-12-16T04:53:53.985Z,19.10
2022-12-16T04:57:14.931Z,18.83
2022-12-16T05:00:38.778Z,17.33
2022-12-16T05:03:57.648Z,17.27
2022-12-16T05:07:07.055Z,15.25
2022-12-16T05:10:37.559Z,18.45
2022-12-16T05:13:43.328Z,21.80
2022-12-16T05:17:14.986Z,20.47
2022-12-16T05:20:36.926Z,16.60
2022-12-16T05:23:55.225Z,19.20
2022-12-16T05:27:01.265Z,22.05
2022-12-16T05:30:19.144Z,17.87
2022-12-16T05:33:38.727Z,17.80
2022-12-16T05:36:57.161Z,17.03
2022-12-16T05:40:03.102Z,16.10
2022-12-16T05:43:21.022Z,17.00
2022-12-16T05:46:27.403Z,18.55
2022-12-16T05:49:59.003Z,15.70
2022-12-16T05:53:18.893Z,17.10
2022-12-16T05:56:38.077Z,16.80
2022-12-16T05:59:56.195Z,18.30
2022-12-16T06:03:03.079Z,15.40
2022-12-16T06:06:34.906Z,16.23
2022-12-16T06:09:40.866Z,16.03
2022-12-16T06:12:59.203Z,22.00
2022-12-16T06:16:17.033Z,15.13
2022-12-16T06:19:35.140Z,16.73
2022-12-16T06:22:34.386Z,19.67
2022-12-16T06:26:06.810Z,18.60
2022-12-16T06:29:13.527Z,20.20
2022-12-16T06:32:32.425Z,19.40
2022-12-16T06:35:38.225Z,14.77
2022-12-16T06:38:56.381Z,17.00
2022-12-16T06:42:16.239Z,15.07
2022-12-16T06:45:47.032Z,18.70
2022-12-16T06:48:53.188Z,18.65
2022-12-16T06:52:26.255Z,19.30
2022-12-16T06:55:32.112Z,18.80
2022-12-16T06:59:04.016Z,18.00
2022-12-16T07:02:10.456Z,19.60
2022-12-16T07:05:28.585Z,22.37
2022-12-16T07:08:51.895Z,18.80
2022-12-16T07:12:10.321Z,19.25
2022-12-16T07:15:33.442Z,18.60
2022-12-16T07:18:52.582Z,18.87
2022-12-16T07:22:07.151Z,20.55
2022-12-16T07:25:25.267Z,21.17
2022-12-16T07:28:43.313Z,22.13
2022-12-16T07:32:15.616Z,19.60
2022-12-16T07:35:21.324Z,19.27
2022-12-16T07:38:42.267Z,25.27
2022-12-16T07:41:56.843Z,20.73
2022-12-16T07:45:14.159Z,34.60
2022-12-16T07:48:33.923Z,24.60
2022-12-16T07:51:52.614Z,23.43
2022-12-16T07:55:10.501Z,19.70
2022-12-16T07:58:29.277Z,20.67
2022-12-16T08:01:35.920Z,19.30
2022-12-16T08:05:10.135Z,21.93
2022-12-16T08:08:28.630Z,18.53
2022-12-16T08:11:37.624Z,22.05
2022-12-16T08:14:55.430Z,21.57
2022-12-16T08:18:13.368Z,23.53
2022-12-16T08:21:45.278Z,26.00
2022-12-16T08:24:53.447Z,20.73
2022-12-16T08:28:23.645Z,20.67
2022-12-16T08:31:29.754Z,22.20
2022-12-16T08:34:48.599Z,19.77
2022-12-16T08:38:13.658Z,23.40
2022-12-16T08:41:26.604Z,22.97
2022-12-16T08:44:52.294Z,19.67
2022-12-16T08:48:10.643Z,21.30
2022-12-16T08:51:29.710Z,20.27
2022-12-16T08:55:01.216Z,22.10
2022-12-16T08:58:23.271Z,25.10
2022-12-16T09:01:41.743Z,25.60
2022-12-16T09:04:47.844Z,23.23
2022-12-16T09:08:06.850Z,29.20
2022-12-16T09:11:26.553Z,19.90
2022-12-16T09:14:44.772Z,30.93
2022-12-16T09:17:51.892Z,25.60
2022-12-16T09:21:21.643Z,23.00
2022-12-16T09:24:39.392Z,22.40
2022-12-16T09:28:12.994Z,28.85
2022-12-16T09:31:19.258Z,23.43
2022-12-16T09:34:36.853Z,22.30
2022-12-16T09:37:42.541Z,30.90
2022-12-16T09:41:12.739Z,28.87
2022-12-16T09:44:32.782Z,28.27
2022-12-16T09:48:05.067Z,25.77
2022-12-16T09:51:22.896Z,25.45
2022-12-16T09:54:58.421Z,35.35
2022-12-16T09:58:16.595Z,23.80
2022-12-16T10:01:48.837Z,27.60
2022-12-16T10:05:18.658Z,24.97
2022-12-16T10:08:36.828Z,34.57
2022-12-16T10:12:06.526Z,27.47
2022-12-16T10:15:24.532Z,33.43
2022-12-16T10:18:55.560Z,30.30
2022-12-16T10:22:12.890Z,36.90
2022-12-16T10:25:43.830Z,34.03
2022-12-16T10:29:08.132Z,31.90
2022-12-16T10:32:44.375Z,28.00
2022-12-16T10:36:03.579Z,28.63
2022-12-16T10:39:33.726Z,28.50
2022-12-16T10:42:51.794Z,29.57
2022-12-16T10:46:23.097Z,28.63
2022-12-16T10:49:48.420Z,31.10
2022-12-16T10:53:21.836Z,31.93
2022-12-16T10:56:43.042Z,29.73
2022-12-16T11:00:12.767Z,34.70
2022-12-16T11:03:46.695Z,28.93
2022-12-16T11:07:19.787Z,29.00
2022-12-16T11:13:43.582Z,34.50
2022-12-16T11:17:02.760Z,30.93
2022-12-16T11:20:20.142Z,36.53
2022-12-16T11:23:54.084Z,32.03
2022-12-16T11:27:12.159Z,38.53
2022-12-16T11:30:47.521Z,31.37
2022-12-16T11:34:05.348Z,30.80
2022-12-16T11:37:24.590Z,35.80
2022-12-16T11:40:54.859Z,34.13
2022-12-16T11:44:25.213Z,29.67
2022-12-16T11:47:50.490Z,35.13
2022-12-16T11:51:20.661Z,34.87
2022-12-16T11:54:38.378Z,30.30
2022-12-16T11:58:09.245Z,35.77
2022-12-16T12:01:28.527Z,35.20
2022-12-16T12:05:01.406Z,32.47
2022-12-16T12:08:19.549Z,32.00
2022-12-16T12:11:50.591Z,36.17
2022-12-16T12:15:11.272Z,30.90
2022-12-16T12:18:42.801Z,33.93
2022-12-16T12:22:02.460Z,32.80
2022-12-16T12:25:32.648Z,30.65
2022-12-16T12:28:53.398Z,27.23
2022-12-16T12:32:24.279Z,31.55
2022-12-16T12:35:46.808Z,32.03
2022-12-16T12:39:22.779Z,32.67
2022-12-16T12:42:48.715Z,29.55
2022-12-16T12:46:16.965Z,32.53
2022-12-16T12:49:43.422Z,36.40
2022-12-16T12:53:28.239Z,33.23
2022-12-16T12:56:47.701Z,31.85
2022-12-16T13:00:21.793Z,32.77
2022-12-16T13:03:42.695Z,34.70
2022-12-16T13:07:13.380Z,37.63
2022-12-16T13:10:44.953Z,42.03
2022-12-16T13:14:25.282Z,44.73
2022-12-16T13:17:30.881Z,37.35
2022-12-16T13:21:05.417Z,54.15
2022-12-16T13:24:10.654Z,33.80
2022-12-16T13:27:40.843Z,34.00
2022-12-16T13:31:00.561Z,36.17
2022-12-16T13:34:33.998Z,32.67
2022-12-16T13:37:51.748Z,38.30
2022-12-16T13:41:28.588Z,32.75
2022-12-16T13:45:00.749Z,36.63
2022-12-16T13:48:37.613Z,36.13
2022-12-16T13:52:02.752Z,40.33
2022-12-16T13:55:42.139Z,40.83
2022-12-16T13:59:01.874Z,34.60
2022-12-16T14:02:31.890Z,34.35
2022-12-16T14:06:07.556Z,35.57
2022-12-16T14:09:26.048Z,36.67
2022-12-16T14:13:02.360Z,31.37
2022-12-16T14:16:24.078Z,29.20
2022-12-16T14:19:54.702Z,36.15
2022-12-16T14:23:39.276Z,42.95
2022-12-16T14:26:46.963Z,39.03
2022-12-16T14:30:04.698Z,34.90
2022-12-16T14:33:50.042Z,40.20
2022-12-16T14:37:08.774Z,36.30
2022-12-16T14:40:49.049Z,44.70
2022-12-16T14:43:55.404Z,33.57
2022-12-16T14:47:28.102Z,36.63
2022-12-16T14:51:05.488Z,34.77
2022-12-16T14:54:47.709Z,43.67
2022-12-16T14:57:53.105Z,37.60
2022-12-16T15:01:22.879Z,32.80
2022-12-16T15:04:41.145Z,38.60
2022-12-16T15:08:13.281Z,43.60
2022-12-16T15:11:31.065Z,51.00
2022-12-16T15:15:01.126Z,33.70
2022-12-16T15:18:18.821Z,30.80
2022-12-16T15:21:37.130Z,33.05
2022-12-16T15:24:59.268Z,40.27
2022-12-16T15:28:29.396Z,37.30
2022-12-16T15:31:55.989Z,35.97
2022-12-16T15:35:12.163Z,39.45
2022-12-16T15:38:18.388Z,33.60
2022-12-16T15:41:51.230Z,38.23
2022-12-16T15:45:08.875Z,38.53
2022-12-16T15:48:40.435Z,40.27
2022-12-16T15:51:59.529Z,36.57
2022-12-16T15:55:26.912Z,39.33
2022-12-16T15:58:51.361Z,41.20
2022-12-16T16:02:22.595Z,40.50
2022-12-16T16:05:52.509Z,34.70
2022-12-16T16:08:58.415Z,42.07
2022-12-16T16:12:19.388Z,33.87
2022-12-16T16:15:42.681Z,45.87
2022-12-16T16:19:12.456Z,39.25
2022-12-16T16:22:18.158Z,43.30
2022-12-16T16:25:40.178Z,39.43
2022-12-16T16:28:46.655Z,47.83
2022-12-16T16:32:21.402Z,42.47
2022-12-16T16:35:30.302Z,41.63
2022-12-16T16:38:48.635Z,45.80
2022-12-16T16:41:54.466Z,38.23
2022-12-16T16:45:12.345Z,41.07
2022-12-16T16:48:34.245Z,41.97
2022-12-16T16:51:53.000Z,41.67
2022-12-16T16:54:59.807Z,42.07
2022-12-16T16:58:18.459Z,38.57
2022-12-16T17:01:24.410Z,42.15
2022-12-16T17:04:55.240Z,37.37
2022-12-16T17:08:01.516Z,42.73
2022-12-16T17:11:32.400Z,36.60
2022-12-16T17:14:50.567Z,40.90
2022-12-16T17:18:09.700Z,39.80
2022-12-16T17:21:28.650Z,41.95
2022-12-16T17:24:51.433Z,34.87
2022-12-16T17:27:53.814Z,37.07
2022-12-16T17:31:13.016Z,43.53
2022-12-16T17:34:18.752Z,39.35
2022-12-16T17:37:49.403Z,35.65
2022-12-16T17:40:55.769Z,39.53
2022-12-16T17:44:13.927Z,41.33
2022-12-16T17:47:31.330Z,38.07
2022-12-16T17:51:04.570Z,35.87
2022-12-16T17:54:29.286Z,44.40
2022-12-16T17:57:44.139Z,41.40
2022-12-16T18:00:49.631Z,39.57
2022-12-16T18:04:19.703Z,35.70
2022-12-16T18:07:25.938Z,45.23
2022-12-16T18:11:02.464Z,38.73
2022-12-16T18:14:08.911Z,39.53
2022-12-16T18:17:26.772Z,37.45
2022-12-16T18:20:32.744Z,36.70
2022-12-16T18:23:50.805Z,36.77
2022-12-16T18:27:25.870Z,39.73
2022-12-16T18:30:43.703Z,44.53
2022-12-16T18:33:49.956Z,32.07
2022-12-16T18:37:07.927Z,30.07
2022-12-16T18:40:13.719Z,36.87
2022-12-16T18:43:45.574Z,38.93
2022-12-16T18:46:51.733Z,35.47
2022-12-16T18:50:11.082Z,32.20
2022-12-16T18:53:16.979Z,39.37
2022-12-16T18:56:35.026Z,30.63
2022-12-16T18:59:56.496Z,34.70
2022-12-16T19:03:13.891Z,34.10
2022-12-16T19:06:32.222Z,36.03
2022-12-16T19:09:51.310Z,32.57
2022-12-16T19:13:08.711Z,37.17
2022-12-16T19:16:40.824Z,38.27
2022-12-16T19:19:46.990Z,32.30
2022-12-16T19:23:04.976Z,35.30
2022-12-16T19:26:26.647Z,30.83
2022-12-16T19:30:01.178Z,33.93
2022-12-16T19:33:20.840Z,35.73
2022-12-16T19:36:42.655Z,33.53
2022-12-16T19:39:56.735Z,32.75
2022-12-16T19:43:18.115Z,29.15
2022-12-16T19:46:36.161Z,27.70
2022-12-16T19:50:07.796Z,31.83
2022-12-16T19:53:14.264Z,33.63
2022-12-16T19:56:33.239Z,31.25
2022-12-16T19:59:42.404Z,41.35
2022-12-16T20:03:00.338Z,36.20
2022-12-16T20:06:36.706Z,35.67
2022-12-16T20:09:41.887Z,39.23
2022-12-16T20:13:01.359Z,34.60
2022-12-16T20:16:07.372Z,35.27
2022-12-16T20:19:25.378Z,35.80
2022-12-16T20:22:44.882Z,35.20
2022-12-16T20:26:15.012Z,36.17
2022-12-16T20:29:21.378Z,31.67
2022-12-16T20:32:40.394Z,34.23
2022-12-16T20:35:57.973Z,30.50
2022-12-16T20:39:30.106Z,29.55
2022-12-16T20:42:35.793Z,33.00
2022-12-16T20:46:06.082Z,33.90
2022-12-16T20:49:12.285Z,30.73
2022-12-16T20:52:30.219Z,33.17
2022-12-16T20:55:50.277Z,34.53
2022-12-16T20:59:20.077Z,35.85
2022-12-16T21:02:39.490Z,29.93
2022-12-16T21:05:57.408Z,29.83
2022-12-16T21:09:06.613Z,47.40
2022-12-16T21:12:37.906Z,27.63
2022-12-16T21:15:44.198Z,32.97
2022-12-16T21:19:15.071Z,32.60
2022-12-16T21:22:21.359Z,39.70
2022-12-16T21:25:39.210Z,37.33
2022-12-16T21:28:59.201Z,32.90
2022-12-16T21:32:17.441Z,40.40
2022-12-16T21:35:24.082Z,32.50
2022-12-16T21:38:42.451Z,29.75
2022-12-16T21:41:48.394Z,35.85
2022-12-16T21:45:20.276Z,39.00
2022-12-16T21:48:50.774Z,35.33
2022-12-16T21:52:13.657Z,40.57
2022-12-16T21:55:19.443Z,39.23
2022-12-16T21:58:53.235Z,35.55
2022-12-16T22:02:13.312Z,35.30
2022-12-16T22:05:34.658Z,34.63
2022-12-16T22:08:40.401Z,33.43
2022-12-16T22:12:10.372Z,38.57
2022-12-16T22:15:28.415Z,41.23
2022-12-16T22:19:04.478Z,37.65
2022-12-16T22:22:13.468Z,39.05
2022-12-16T22:25:31.709Z,39.45
2022-12-16T22:28:37.829Z,37.27
2022-12-16T22:32:09.293Z,34.13
2022-12-16T22:35:28.255Z,32.17
2022-12-16T22:39:07.223Z,35.53
2022-12-16T22:42:13.570Z,36.35
2022-12-16T22:45:32.159Z,35.03
2022-12-16T22:48:38.900Z,36.57
2022-12-16T22:52:10.638Z,34.27
2022-12-16T22:55:28.266Z,35.33
2022-12-16T22:58:47.765Z,33.27
2022-12-16T23:01:54.144Z,38.55
2022-12-16T23:05:12.585Z,35.50
2022-12-16T23:08:32.171Z,36.77
2022-12-16T23:12:02.722Z,35.37
2022-12-16T23:15:24.455Z,32.30
2022-12-16T23:18:42.902Z,38.50
2022-12-16T23:21:48.640Z,39.33
2022-12-16T23:25:20.561Z,34.90
2022-12-16T23:28:26.830Z,36.47
2022-12-16T23:31:44.656Z,33.83
2022-12-16T23:34:50.942Z,32.50
2022-12-16T23:38:08.926Z,39.10
2022-12-16T23:41:28.809Z,32.75
2022-12-16T23:44:48.721Z,29.40
2022-12-16T23:47:53.100Z,30.93
2022-12-16T23:51:22.875Z,36.77
2022-12-16T23:54:28.779Z,36.93
2022-12-16T23:57:59.678Z,33.57
